createdAt,value
2022-09-29T00:02:21.643Z,99593.72
2022-09-29T00:05:15.326Z,99597.63
2022-09-29T00:07:46.845Z,99600.25
2022-09-29T00:10:22.264Z,99599.44
2022-09-29T00:12:54.757Z,99599.31
2022-09-29T00:15:32.854Z,99604.41
2022-09-29T00:18:14.457Z,99599.06
2022-09-29T00:20:48.809Z,99594.78
2022-09-29T00:23:17.575Z,99603.59
2022-09-29T00:25:46.263Z,99598.38
2022-09-29T00:28:16.698Z,99594.78
2022-09-29T00:30:59.615Z,99599.31
2022-09-29T00:33:33.387Z,99599.44
2022-09-29T00:36:18.303Z,99597.31
2022-09-29T00:38:53.507Z,99592.22
2022-09-29T00:41:32.294Z,99598.66
2022-09-29T00:44:07.338Z,99599.59
2022-09-29T00:46:51.266Z,99602.44
2022-09-29T00:49:29.845Z,99598.88
2022-09-29T00:52:08.486Z,99600.56
2022-09-29T00:54:44.492Z,99608.38
2022-09-29T00:57:24.280Z,99597.22
2022-09-29T01:00:05.462Z,99598.19
2022-09-29T01:02:54.109Z,99600.91
2022-09-29T01:05:32.709Z,99604.22
2022-09-29T01:08:14.246Z,99594.84
2022-09-29T01:10:47.381Z,99590.50
2022-09-29T01:13:31.378Z,99609.66
2022-09-29T01:16:12.310Z,99610.47
2022-09-29T01:18:44.549Z,99608.03
2022-09-29T01:21:41.707Z,99610.88
2022-09-29T01:24:54.176Z,99621.66
2022-09-29T01:27:59.166Z,99617.63
2022-09-29T01:30:48.344Z,99624.84
2022-09-29T01:33:33.977Z,99629.81
2022-09-29T01:36:19.036Z,99632.56
2022-09-29T01:39:07.115Z,99631.72
2022-09-29T01:41:46.678Z,99633.53
2022-09-29T01:44:28.149Z,99639.06
2022-09-29T01:47:06.019Z,99643.94
2022-09-29T01:49:53.561Z,99642.25
2022-09-29T01:52:30.026Z,99637.06
2022-09-29T01:55:11.636Z,99640.47
2022-09-29T01:57:50.206Z,99654.34
2022-09-29T02:00:24.156Z,99644.63
2022-09-29T02:03:03.306Z,99641.91
2022-09-29T02:05:43.534Z,99645.34
2022-09-29T02:08:33.330Z,99647.13
2022-09-29T02:11:24.287Z,99647.94
2022-09-29T02:14:08.233Z,99648.91
2022-09-29T02:16:46.995Z,99660.25
2022-09-29T02:19:25.443Z,99661.06
2022-09-29T02:21:58.964Z,99669.97
2022-09-29T02:24:37.207Z,99669.38
2022-09-29T02:27:14.499Z,99657.19
2022-09-29T02:29:43.248Z,99664.28
2022-09-29T02:32:14.662Z,99664.50
2022-09-29T02:34:50.143Z,99663.94
2022-09-29T02:37:38.771Z,99671.00
2022-09-29T02:40:23.256Z,99665.28
2022-09-29T02:43:06.196Z,99667.19
2022-09-29T02:45:44.115Z,99673.34
2022-09-29T02:48:48.829Z,99666.72
2022-09-29T02:51:27.454Z,99667.66
2022-09-29T02:54:11.788Z,99666.84
2022-09-29T02:56:49.907Z,99668.50
2022-09-29T02:59:28.346Z,99674.75
2022-09-29T03:02:05.930Z,99668.97
2022-09-29T03:04:39.315Z,99672.16
2022-09-29T03:07:11.452Z,99671.91
2022-09-29T03:09:45.458Z,99672.50
2022-09-29T03:12:18.586Z,99666.25
2022-09-29T03:14:47.170Z,99677.25
2022-09-29T03:17:14.830Z,99672.88
2022-09-29T03:19:42.480Z,99672.06
2022-09-29T03:22:11.555Z,99673.69
2022-09-29T03:24:39.171Z,99673.59
2022-09-29T03:27:06.895Z,99675.28
2022-09-29T03:29:34.567Z,99678.56
2022-09-29T03:32:02.835Z,99669.72
2022-09-29T03:34:30.510Z,99676.44
2022-09-29T03:36:58.174Z,99683.31
2022-09-29T03:39:27.326Z,99676.44
2022-09-29T03:41:55.875Z,99684.38
2022-09-29T03:44:23.420Z,99680.84
2022-09-29T03:46:51.122Z,99685.09
2022-09-29T03:49:19.086Z,99688.53
2022-09-29T03:51:46.873Z,99687.47
2022-09-29T03:54:15.623Z,99698.47
2022-09-29T03:56:44.694Z,99692.31
2022-09-29T03:59:12.468Z,99693.03
2022-09-29T04:01:40.269Z,99694.56
2022-09-29T04:04:07.965Z,99707.47
2022-09-29T04:06:36.277Z,99703.19
2022-09-29T04:09:04.771Z,99703.44
2022-09-29T04:11:32.591Z,99712.31
2022-09-29T04:14:01.674Z,99707.78
2022-09-29T04:16:29.445Z,99702.84
2022-09-29T04:18:57.123Z,99712.53
2022-09-29T04:21:25.075Z,99704.59
2022-09-29T04:23:52.724Z,99712.41
2022-09-29T04:26:20.868Z,99708.97
2022-09-29T04:28:48.597Z,99711.59
2022-09-29T04:31:17.706Z,99713.69
2022-09-29T04:33:45.444Z,99718.88
2022-09-29T04:36:13.201Z,99721.50
2022-09-29T04:38:40.994Z,99711.78
2022-09-29T04:41:08.936Z,99721.28
2022-09-29T04:43:36.648Z,99721.28
2022-09-29T04:46:06.683Z,99720.34
2022-09-29T04:48:36.544Z,99716.91
2022-09-29T04:51:05.021Z,99713.97
2022-09-29T04:53:32.780Z,99724.38
2022-09-29T04:56:01.171Z,99723.41
2022-09-29T04:58:28.971Z,99728.75
2022-09-29T05:00:56.754Z,99723.66
2022-09-29T05:03:26.011Z,99723.78
2022-09-29T05:05:57.160Z,99731.47
2022-09-29T05:08:24.931Z,99727.69
2022-09-29T05:10:52.689Z,99734.44
2022-09-29T05:13:20.539Z,99736.94
2022-09-29T05:15:48.205Z,99737.84
2022-09-29T05:18:15.895Z,99737.97
2022-09-29T05:20:59.183Z,99734.44
2022-09-29T05:23:32.468Z,99746.50
2022-09-29T05:26:03.167Z,99738.09
2022-09-29T05:28:30.824Z,99753.00
2022-09-29T05:31:05.414Z,99750.75
2022-09-29T05:33:33.897Z,99756.66
2022-09-29T05:36:02.278Z,99753.22
2022-09-29T05:38:29.973Z,99755.00
2022-09-29T05:40:59.172Z,99764.44
2022-09-29T05:43:29.224Z,99760.09
2022-09-29T05:46:00.864Z,99761.84
2022-09-29T05:48:30.804Z,99754.91
2022-09-29T05:50:58.513Z,99755.81
2022-09-29T05:53:26.475Z,99756.25
2022-09-29T05:55:54.330Z,99756.94
2022-09-29T05:58:23.294Z,99758.53
2022-09-29T06:00:51.103Z,99761.75
2022-09-29T06:03:18.810Z,99765.78
2022-09-29T06:05:46.445Z,99773.38
2022-09-29T06:08:14.172Z,99778.31
2022-09-29T06:10:41.867Z,99775.72
2022-09-29T06:13:09.521Z,99767.78
2022-09-29T06:15:38.716Z,99778.94
2022-09-29T06:18:06.645Z,99774.53
2022-09-29T06:20:38.367Z,99771.94
2022-09-29T06:23:06.125Z,99779.63
2022-09-29T06:25:33.723Z,99778.81
2022-09-29T06:28:01.843Z,99777.84
2022-09-29T06:30:29.584Z,99783.28
2022-09-29T06:32:58.907Z,99784.25
2022-09-29T06:35:44.112Z,99780.09
2022-09-29T06:38:12.272Z,99777.97
2022-09-29T06:40:39.970Z,99781.41
2022-09-29T06:43:08.097Z,99780.91
2022-09-29T06:45:35.808Z,99784.25
2022-09-29T06:48:05.015Z,99790.63
2022-09-29T06:50:32.809Z,99784.97
2022-09-29T06:53:04.365Z,99786.75
2022-09-29T06:55:32.881Z,99781.16
2022-09-29T06:58:04.050Z,99788.84
2022-09-29T07:00:32.991Z,99790.63
2022-09-29T07:03:00.652Z,99798.09
2022-09-29T07:05:29.676Z,99795.03
2022-09-29T07:08:00.903Z,99802.47
2022-09-29T07:10:29.104Z,99804.38
2022-09-29T07:12:56.922Z,99804.97
2022-09-29T07:15:31.626Z,99801.19
2022-09-29T07:18:01.054Z,99795.66
2022-09-29T07:20:30.716Z,99802.63
2022-09-29T07:22:58.760Z,99808.19
2022-09-29T07:25:50.029Z,99804.06
2022-09-29T07:28:14.433Z,99810.31
2022-09-29T07:30:42.137Z,99809.13
2022-09-29T07:33:09.822Z,99819.19
2022-09-29T07:35:40.059Z,99814.91
2022-09-29T07:38:07.960Z,99821.91
2022-09-29T07:40:35.684Z,99823.59
2022-09-29T07:43:03.414Z,99823.22
2022-09-29T07:45:31.140Z,99825.34
2022-09-29T07:47:58.726Z,99835.88
2022-09-29T07:50:26.388Z,99825.78
2022-09-29T07:52:55.389Z,99836.78
2022-09-29T07:55:23.993Z,99831.69
2022-09-29T07:57:51.955Z,99832.75
2022-09-29T08:00:19.590Z,99839.13
2022-09-29T08:02:47.349Z,99837.94
2022-09-29T08:05:15.111Z,99836.72
2022-09-29T08:07:42.879Z,99838.00
2022-09-29T08:10:17.485Z,99844.75
2022-09-29T08:12:45.457Z,99846.75
2022-09-29T08:15:13.284Z,99843.63
2022-09-29T08:17:41.053Z,99853.47
2022-09-29T08:20:09.406Z,99839.81
2022-09-29T08:22:37.171Z,99854.72
2022-09-29T08:25:05.477Z,99845.31
2022-09-29T08:27:37.319Z,99850.59
2022-09-29T08:30:11.301Z,99854.22
2022-09-29T08:32:39.505Z,99853.19
2022-09-29T08:35:07.937Z,99859.19
2022-09-29T08:37:35.785Z,99863.50
2022-09-29T08:40:03.679Z,99870.31
2022-09-29T08:42:49.013Z,99862.09
2022-09-29T08:45:25.687Z,99865.16
2022-09-29T08:47:58.459Z,99869.91
2022-09-29T08:50:32.051Z,99883.44
2022-09-29T08:53:02.301Z,99873.03
2022-09-29T08:55:40.239Z,99878.69
2022-09-29T08:58:14.366Z,99878.16
2022-09-29T09:00:49.200Z,99881.19
2022-09-29T09:03:39.241Z,99889.06
2022-09-29T09:06:20.691Z,99886.28
2022-09-29T09:09:09.320Z,99890.16
2022-09-29T09:11:58.667Z,99887.25
2022-09-29T09:15:01.311Z,99883.91
2022-09-29T09:17:56.196Z,99885.56
2022-09-29T09:20:34.643Z,99888.19
2022-09-29T09:23:11.700Z,99880.19
2022-09-29T09:25:43.685Z,99900.00
2022-09-29T09:28:18.082Z,99897.34
2022-09-29T09:30:52.495Z,99902.19
2022-09-29T09:33:38.956Z,99892.34
2022-09-29T09:36:15.810Z,99904.31
2022-09-29T09:38:52.910Z,99892.91
2022-09-29T09:41:23.752Z,99895.59
2022-09-29T09:43:57.512Z,99901.41
2022-09-29T09:46:34.633Z,99900.47
2022-09-29T09:49:11.996Z,99904.41
2022-09-29T09:51:50.862Z,99906.16
2022-09-29T09:54:27.810Z,99913.41
2022-09-29T09:57:25.360Z,99910.66
2022-09-29T10:00:04.483Z,99914.56
2022-09-29T10:02:45.993Z,99921.41
2022-09-29T10:05:17.563Z,99917.19
2022-09-29T10:07:47.122Z,99927.34
2022-09-29T10:10:19.001Z,99921.78
2022-09-29T10:12:47.080Z,99928.97
2022-09-29T10:15:21.045Z,99930.09
2022-09-29T10:17:57.602Z,99924.97
2022-09-29T10:20:37.852Z,99928.97
2022-09-29T10:23:26.288Z,99933.78
2022-09-29T10:25:58.781Z,99928.09
2022-09-29T10:28:29.670Z,99930.94
2022-09-29T10:30:57.568Z,99925.63
2022-09-29T10:33:27.265Z,99935.09
2022-09-29T10:36:09.423Z,99943.38
2022-09-29T10:38:38.591Z,99931.19
2022-09-29T10:41:08.896Z,99940.06
2022-09-29T10:43:40.031Z,99943.16
2022-09-29T10:46:30.603Z,99945.38
2022-09-29T10:49:11.080Z,99936.56
2022-09-29T10:51:41.294Z,99941.88
2022-09-29T10:54:10.469Z,99949.59
2022-09-29T10:56:38.474Z,99944.34
2022-09-29T10:59:06.534Z,99951.81
2022-09-29T11:01:45.434Z,99947.28
2022-09-29T11:04:19.169Z,99943.44
2022-09-29T11:06:49.087Z,99948.13
2022-09-29T11:09:39.609Z,99952.69
2022-09-29T11:12:24.446Z,99953.13
2022-09-29T11:14:52.292Z,99959.72
2022-09-29T11:17:23.920Z,99968.28
2022-09-29T11:19:52.835Z,99969.88
2022-09-29T11:22:50.765Z,99966.28
2022-09-29T11:25:32.172Z,99959.88
2022-09-29T11:28:26.673Z,99960.19
2022-09-29T11:31:10.302Z,99965.59
2022-09-29T11:33:48.001Z,99962.06
2022-09-29T11:36:24.057Z,99975.19
2022-09-29T11:39:06.250Z,99966.44
2022-09-29T11:41:49.503Z,99958.84
2022-09-29T11:44:31.896Z,99964.78
2022-09-29T11:47:10.517Z,99964.53
2022-09-29T11:49:56.095Z,99970.72
2022-09-29T11:52:39.643Z,99973.78
2022-09-29T11:55:20.839Z,99969.16
2022-09-29T11:57:58.415Z,99973.78
2022-09-29T12:00:43.188Z,99967.09
2022-09-29T12:03:24.216Z,99970.72
2022-09-29T12:06:02.569Z,99966.91
2022-09-29T12:08:51.294Z,99966.91
2022-09-29T12:14:26.082Z,99961.03
2022-09-29T12:16:58.784Z,99972.03
2022-09-29T12:19:29.936Z,99967.56
2022-09-29T12:22:01.313Z,99967.72
2022-09-29T12:24:36.498Z,99969.06
2022-09-29T12:27:09.505Z,99955.03
2022-09-29T12:29:42.220Z,99962.66
2022-09-29T12:32:19.100Z,99960.16
2022-09-29T12:34:53.796Z,99966.44
2022-09-29T12:37:29.578Z,99964.78
2022-09-29T12:40:04.246Z,99963.25
2022-09-29T12:42:53.646Z,99961.78
2022-09-29T12:45:29.637Z,99966.72
2022-09-29T12:48:16.903Z,99970.34
2022-09-29T12:50:51.964Z,99965.38
2022-09-29T12:53:23.675Z,99965.69
2022-09-29T12:55:58.758Z,99965.69
2022-09-29T12:58:35.889Z,99970.47
2022-09-29T13:01:20.259Z,99970.31
2022-09-29T13:04:14.740Z,99959.75
2022-09-29T13:06:57.459Z,99967.34
2022-09-29T13:09:52.870Z,99975.41
2022-09-29T13:12:49.105Z,99978.84
2022-09-29T13:15:31.193Z,99974.22
2022-09-29T13:18:17.479Z,99970.44
2022-09-29T13:21:05.537Z,99977.25
2022-09-29T13:23:49.817Z,99971.81
2022-09-29T13:26:43.341Z,99988.66
2022-09-29T13:29:15.692Z,99980.75
2022-09-29T13:31:47.024Z,99982.44
2022-09-29T13:34:26.342Z,99984.75
2022-09-29T13:36:54.392Z,99981.97
2022-09-29T13:39:26.553Z,99993.16
2022-09-29T13:41:55.764Z,99989.84
2022-09-29T13:44:26.496Z,99987.50
2022-09-29T13:46:57.084Z,99984.22
2022-09-29T13:49:30.327Z,99989.63
2022-09-29T13:52:00.647Z,99995.88
2022-09-29T13:54:46.377Z,99996.69
2022-09-29T13:57:27.522Z,99992.09
2022-09-29T14:00:18.636Z,99994.34
2022-09-29T14:02:53.057Z,99999.31
2022-09-29T14:05:58.183Z,99994.75
2022-09-29T14:08:30.768Z,99996.53
2022-09-29T14:11:07.607Z,100007.53
2022-09-29T14:13:44.792Z,100004.22
2022-09-29T14:16:23.087Z,100004.69
2022-09-29T14:18:56.024Z,100000.91
2022-09-29T14:21:54.962Z,100016.41
2022-09-29T14:24:47.328Z,100019.03
2022-09-29T14:27:24.461Z,100016.09
2022-09-29T14:29:56.469Z,100019.22
2022-09-29T14:32:35.069Z,100019.56
2022-09-29T14:35:14.808Z,100018.59
2022-09-29T14:37:44.122Z,100023.19
2022-09-29T14:40:29.466Z,100018.41
2022-09-29T14:43:05.061Z,100023.00
2022-09-29T14:45:59.593Z,100026.78
2022-09-29T14:48:51.913Z,100033.00
2022-09-29T14:51:44.774Z,100032.00
2022-09-29T14:54:27.164Z,100029.03
2022-09-29T14:57:04.007Z,100029.84
2022-09-29T14:59:45.972Z,100038.81
2022-09-29T15:02:25.114Z,100039.28
2022-09-29T15:04:53.628Z,100038.44
2022-09-29T15:07:24.450Z,100039.75
2022-09-29T15:09:54.295Z,100036.44
2022-09-29T15:12:26.445Z,100032.94
2022-09-29T15:14:54.832Z,100040.97
2022-09-29T15:17:37.551Z,100037.84
2022-09-29T15:20:14.521Z,100044.56
2022-09-29T15:23:05.449Z,100040.22
2022-09-29T15:25:35.903Z,100051.69
2022-09-29T15:28:06.429Z,100058.69
2022-09-29T15:30:35.059Z,100061.38
2022-09-29T15:33:18.527Z,100064.81
2022-09-29T15:35:51.148Z,100059.09
2022-09-29T15:38:32.682Z,100062.75
2022-09-29T15:41:04.682Z,100062.25
2022-09-29T15:43:42.063Z,100061.25
2022-09-29T15:46:22.633Z,100073.72
2022-09-29T15:49:11.189Z,100070.88
2022-09-29T15:51:40.453Z,100063.97
2022-09-29T15:54:16.064Z,100073.41
2022-09-29T15:57:01.670Z,100076.63
2022-09-29T15:59:46.003Z,100084.00
2022-09-29T16:02:30.944Z,100090.13
2022-09-29T16:05:02.986Z,100092.03
2022-09-29T16:07:34.640Z,100082.94
2022-09-29T16:10:09.763Z,100085.88
2022-09-29T16:12:46.264Z,100080.63
2022-09-29T16:15:21.977Z,100085.47
2022-09-29T16:17:50.992Z,100083.81
2022-09-29T16:20:26.725Z,100089.22
2022-09-29T16:22:57.449Z,100093.25
2022-09-29T16:25:28.624Z,100086.66
2022-09-29T16:27:58.523Z,100098.00
2022-09-29T16:30:29.343Z,100095.66
2022-09-29T16:33:04.453Z,100098.41
2022-09-29T16:35:41.423Z,100099.44
2022-09-29T16:38:20.245Z,100113.00
2022-09-29T16:40:49.843Z,100116.72
2022-09-29T16:43:24.531Z,100116.59
2022-09-29T16:45:56.052Z,100124.75
2022-09-29T16:48:25.282Z,100131.13
2022-09-29T16:50:57.167Z,100128.94
2022-09-29T16:53:32.745Z,100124.09
2022-09-29T16:56:05.283Z,100127.41
2022-09-29T16:58:33.334Z,100137.38
2022-09-29T17:01:01.611Z,100135.03
2022-09-29T17:03:32.239Z,100141.69
2022-09-29T17:06:05.516Z,100154.13
2022-09-29T17:08:35.872Z,100148.31
2022-09-29T17:11:05.477Z,100158.38
2022-09-29T17:13:36.958Z,100157.84
2022-09-29T17:16:08.061Z,100160.59
2022-09-29T17:18:37.325Z,100165.28
2022-09-29T17:21:05.894Z,100165.00
2022-09-29T17:23:36.433Z,100174.13
2022-09-29T17:26:20.135Z,100172.03
2022-09-29T17:28:48.065Z,100175.19
2022-09-29T17:31:15.741Z,100177.94
2022-09-29T17:33:43.423Z,100189.53
2022-09-29T17:36:15.243Z,100189.69
2022-09-29T17:38:43.026Z,100187.44
2022-09-29T17:41:16.409Z,100188.41
2022-09-29T17:43:47.798Z,100192.97
2022-09-29T17:46:17.282Z,100199.28
2022-09-29T17:48:45.586Z,100187.44
2022-09-29T17:51:14.958Z,100202.72
2022-09-29T17:53:42.987Z,100195.94
2022-09-29T17:56:21.861Z,100199.81
2022-09-29T17:58:50.362Z,100199.94
2022-09-29T18:01:19.921Z,100207.13
2022-09-29T18:03:47.959Z,100203.09
2022-09-29T18:06:21.552Z,100206.09
2022-09-29T18:08:53.792Z,100212.72
2022-09-29T18:11:25.053Z,100216.66
2022-09-29T18:13:53.046Z,100217.09
2022-09-29T18:16:23.148Z,100218.56
2022-09-29T18:18:55.531Z,100218.25
2022-09-29T18:21:24.989Z,100219.59
2022-09-29T18:23:52.713Z,100230.34
2022-09-29T18:26:21.410Z,100231.28
2022-09-29T18:28:51.506Z,100227.28
2022-09-29T18:31:25.414Z,100230.03
2022-09-29T18:33:53.603Z,100229.47
2022-09-29T18:36:22.446Z,100235.75
2022-09-29T18:38:50.445Z,100234.38
2022-09-29T18:41:20.248Z,100244.25
2022-09-29T18:43:50.307Z,100246.16
2022-09-29T18:46:18.971Z,100247.41
2022-09-29T18:48:46.863Z,100250.25
2022-09-29T18:51:16.719Z,100241.97
2022-09-29T18:53:46.379Z,100232.25
2022-09-29T18:56:17.936Z,100230.94
2022-09-29T18:58:46.466Z,100232.81
2022-09-29T19:01:22.960Z,100239.41
2022-09-29T19:03:50.830Z,100235.13
2022-09-29T19:06:18.981Z,100237.03
2022-09-29T19:08:49.114Z,100232.91
2022-09-29T19:11:21.951Z,100239.19
2022-09-29T19:13:52.456Z,100247.16
2022-09-29T19:16:22.226Z,100256.13
2022-09-29T19:18:50.708Z,100257.44
2022-09-29T19:21:19.037Z,100257.53
2022-09-29T19:23:51.606Z,100265.63
2022-09-29T19:26:22.439Z,100262.31
2022-09-29T19:28:50.763Z,100259.81
2022-09-29T19:31:25.220Z,100264.47
2022-09-29T19:33:53.244Z,100270.66
2022-09-29T19:36:23.920Z,100272.69
2022-09-29T19:38:51.834Z,100258.22
2022-09-29T19:41:22.514Z,100265.47
2022-09-29T19:43:51.304Z,100269.25
2022-09-29T19:46:22.516Z,100261.66
2022-09-29T19:48:50.832Z,100271.41
2022-09-29T19:51:36.802Z,100263.81
2022-09-29T19:54:14.708Z,100276.19
2022-09-29T19:56:45.647Z,100268.69
2022-09-29T19:59:15.294Z,100269.91
2022-09-29T20:01:45.828Z,100275.25
2022-09-29T20:04:15.378Z,100271.91
2022-09-29T20:06:44.840Z,100272.13
2022-09-29T20:09:13.582Z,100277.63
2022-09-29T20:11:42.243Z,100279.63
2022-09-29T20:14:13.444Z,100290.34
2022-09-29T20:16:45.854Z,100288.91
2022-09-29T20:19:18.475Z,100290.91
2022-09-29T20:21:48.266Z,100292.19
2022-09-29T20:24:17.940Z,100300.53
2022-09-29T20:26:47.706Z,100299.69
2022-09-29T20:29:18.836Z,100300.50
2022-09-29T20:31:48.994Z,100290.16
2022-09-29T20:34:18.605Z,100286.59
2022-09-29T20:36:49.692Z,100296.94
2022-09-29T20:39:19.975Z,100299.56
2022-09-29T20:41:49.580Z,100303.09
2022-09-29T20:44:19.998Z,100311.97
2022-09-29T20:46:49.939Z,100306.91
2022-09-29T20:49:17.965Z,100307.72
2022-09-29T20:51:45.619Z,100316.50
2022-09-29T20:54:14.405Z,100321.00
2022-09-29T20:56:42.467Z,100322.31
2022-09-29T20:59:12.372Z,100328.31
2022-09-29T21:01:40.756Z,100329.31
2022-09-29T21:04:11.975Z,100326.63
2022-09-29T21:06:42.026Z,100329.13
2022-09-29T21:09:12.288Z,100336.03
2022-09-29T21:11:41.152Z,100337.81
2022-09-29T21:14:11.465Z,100331.03
2022-09-29T21:16:42.204Z,100339.69
2022-09-29T21:19:12.023Z,100341.47
2022-09-29T21:21:41.218Z,100345.84
2022-09-29T21:24:09.443Z,100346.88
2022-09-29T21:26:37.774Z,100356.50
2022-09-29T21:29:06.325Z,100352.44
2022-09-29T21:31:36.371Z,100366.44
2022-09-29T21:34:06.059Z,100366.56
2022-09-29T21:36:38.013Z,100371.91
2022-09-29T21:39:08.987Z,100365.97
2022-09-29T21:41:38.272Z,100366.91
2022-09-29T21:44:11.339Z,100379.94
2022-09-29T21:46:40.419Z,100377.44
2022-09-29T21:49:09.626Z,100374.22
2022-09-29T21:51:40.720Z,100376.13
2022-09-29T21:54:12.800Z,100378.94
2022-09-29T21:56:42.606Z,100387.00
2022-09-29T21:59:11.661Z,100380.31
2022-09-29T22:01:40.505Z,100384.00
2022-09-29T22:04:09.259Z,100386.00
2022-09-29T22:06:40.019Z,100394.13
2022-09-29T22:09:09.517Z,100395.28
2022-09-29T22:11:39.412Z,100396.47
2022-09-29T22:14:08.197Z,100401.16
2022-09-29T22:16:36.971Z,100404.19
2022-09-29T22:19:22.378Z,100404.72
2022-09-29T22:21:52.531Z,100406.81
2022-09-29T22:24:20.364Z,100401.00
2022-09-29T22:26:48.217Z,100406.41
2022-09-29T22:29:15.938Z,100405.81
2022-09-29T22:31:43.928Z,100410.50
2022-09-29T22:34:12.116Z,100409.03
2022-09-29T22:36:40.054Z,100415.31
2022-09-29T22:39:09.147Z,100410.41
2022-09-29T22:41:39.868Z,100413.09
2022-09-29T22:44:07.943Z,100408.19
2022-09-29T22:46:36.189Z,100407.59
2022-09-29T22:49:04.931Z,100400.81
2022-09-29T22:51:33.236Z,100397.56
2022-09-29T22:54:00.887Z,100413.31
2022-09-29T22:56:30.089Z,100416.97
2022-09-29T22:59:01.862Z,100408.31
2022-09-29T23:01:30.058Z,100407.47
2022-09-29T23:03:57.780Z,100413.53
2022-09-29T23:06:25.775Z,100411.03
2022-09-29T23:08:54.742Z,100415.28
2022-09-29T23:11:23.036Z,100415.38
2022-09-29T23:13:53.155Z,100424.97
2022-09-29T23:16:21.208Z,100417.38
2022-09-29T23:18:53.850Z,100423.53
2022-09-29T23:21:21.941Z,100426.25
2022-09-29T23:23:53.432Z,100428.09
2022-09-29T23:26:21.301Z,100426.44
2022-09-29T23:28:49.707Z,100425.69
2022-09-29T23:31:19.225Z,100434.56
2022-09-29T23:33:51.949Z,100433.94
2022-09-29T23:36:19.805Z,100436.75
2022-09-29T23:39:06.674Z,100436.84
2022-09-29T23:41:34.918Z,100443.91
2022-09-29T23:44:05.321Z,100441.41
2022-09-29T23:46:36.751Z,100437.13
2022-09-29T23:49:09.578Z,100433.81
2022-09-29T23:51:39.250Z,100434.91
2022-09-29T23:54:08.438Z,100438.56
2022-09-29T23:56:36.460Z,100438.69
2022-09-29T23:59:04.595Z,100443.16
